Oro Valley, Arizona
Current Conditions -  °F | °C
As of 1:15 PM on Sunday 23 Nov 2014 (Local Time) from KAVQ Reporting Station
Clear Clear  
Wind Chill: 67°   Ceiling: Unl
Heat Index: 67°   Visibility: 10mi
Dew Point: 28°   Wind: 13mph
Humidity: 23%   Direction: 320°NW
Pressure: 30.04"   Gusts: 17mph
Location:  32.4847°N, 110.899°W
Report Text: KAVQ 232015Z AUTO 32011G15KT 10SM CLR 20/M02 A3004 RMK AO2 T01951025
Loading
Personal Weather Stations






























Interactive Weather Map New forecast layout! Learn more

10-Day Weather Forecast

Advertisements
Track Severe Weather on mobile